createdAt,value
2019-02-08T00:03:15.858Z,2.80
2019-02-08T00:08:08.916Z,1.30
2019-02-08T00:13:03.765Z,4.80
2019-02-08T00:17:56.272Z,4.00
2019-02-08T00:22:50.203Z,4.70
2019-02-08T00:27:43.961Z,4.10
2019-02-08T00:32:36.311Z,2.30
2019-02-08T00:37:28.516Z,5.30
2019-02-08T00:42:20.276Z,2.60
2019-02-08T00:47:12.498Z,2.40
2019-02-08T00:52:04.371Z,3.90
2019-02-08T00:56:56.884Z,1.20
2019-02-08T01:01:49.033Z,6.50
2019-02-08T01:06:41.082Z,5.90
2019-02-08T01:11:34.993Z,6.20
2019-02-08T01:16:29.103Z,3.80
2019-02-08T01:21:22.689Z,2.90
2019-02-08T01:26:16.273Z,7.10
2019-02-08T01:31:09.505Z,2.80
2019-02-08T01:36:00.880Z,7.20
2019-02-08T01:40:52.473Z,2.10
2019-02-08T01:45:44.676Z,2.70
2019-02-08T01:50:38.322Z,2.40
2019-02-08T01:55:29.832Z,6.00
2019-02-08T02:00:21.809Z,1.90
2019-02-08T02:05:15.995Z,3.20
2019-02-08T02:10:07.524Z,2.50
2019-02-08T02:14:59.480Z,1.60
2019-02-08T02:19:52.749Z,6.40
2019-02-08T02:24:45.379Z,3.80
2019-02-08T02:29:37.243Z,1.40
2019-02-08T02:34:29.329Z,2.00
2019-02-08T02:39:21.420Z,4.00
2019-02-08T02:44:13.358Z,2.20
2019-02-08T02:49:05.283Z,4.60
2019-02-08T02:54:04.579Z,1.40
2019-02-08T02:58:55.630Z,5.70
2019-02-08T03:03:47.571Z,2.00
2019-02-08T03:08:39.864Z,1.90
2019-02-08T03:13:31.731Z,3.60
2019-02-08T03:18:23.831Z,0.80
2019-02-08T03:23:16.579Z,5.30
2019-02-08T03:28:08.247Z,4.40
2019-02-08T03:33:00.362Z,4.80
2019-02-08T03:37:56.313Z,3.60
2019-02-08T03:42:49.502Z,4.10
2019-02-08T03:47:42.740Z,3.00
2019-02-08T03:52:36.401Z,3.80
2019-02-08T03:57:28.980Z,3.50
2019-02-08T04:02:21.201Z,3.50
2019-02-08T04:07:13.172Z,2.70
2019-02-08T04:12:05.437Z,4.90
2019-02-08T04:16:57.386Z,12.00
2019-02-08T04:21:49.569Z,4.80
2019-02-08T04:26:41.536Z,4.30
2019-02-08T04:31:33.537Z,5.50
2019-02-08T04:36:25.671Z,4.10
2019-02-08T04:41:18.050Z,1.60
2019-02-08T04:46:09.977Z,4.80
2019-02-08T04:51:02.094Z,4.50
2019-02-08T04:55:53.948Z,3.30
2019-02-08T05:00:51.983Z,6.10
2019-02-08T05:05:41.429Z,7.00
2019-02-08T05:10:33.350Z,3.50
2019-02-08T05:15:25.378Z,9.10
2019-02-08T05:20:17.522Z,10.80
2019-02-08T05:25:18.723Z,4.80
2019-02-08T05:30:05.679Z,5.10
2019-02-08T05:34:56.938Z,6.10
2019-02-08T05:39:49.011Z,2.60
2019-02-08T05:44:42.855Z,8.80
2019-02-08T05:49:34.190Z,7.60
2019-02-08T05:54:26.477Z,4.00
2019-02-08T05:59:18.167Z,7.30
2019-02-08T06:04:10.275Z,4.90
2019-02-08T06:09:02.098Z,8.10
2019-02-08T06:13:53.970Z,13.30
2019-02-08T06:18:45.917Z,8.10
2019-02-08T06:23:38.022Z,13.80
2019-02-08T06:28:30.686Z,6.90
2019-02-08T06:33:22.649Z,4.90
2019-02-08T06:38:15.232Z,3.40
2019-02-08T06:43:07.113Z,5.60
2019-02-08T06:48:00.397Z,3.70
2019-02-08T06:52:52.617Z,4.90
2019-02-08T06:57:44.761Z,8.70
2019-02-08T07:02:36.887Z,4.00
2019-02-08T07:07:30.876Z,5.30
2019-02-08T07:12:24.481Z,5.20
2019-02-08T07:17:16.163Z,3.10
2019-02-08T07:22:08.186Z,6.60
2019-02-08T07:27:02.246Z,7.60
2019-02-08T07:31:55.835Z,3.80
2019-02-08T07:36:47.530Z,1.80
2019-02-08T07:41:41.430Z,4.80
2019-02-08T07:46:35.058Z,4.70
2019-02-08T07:51:26.563Z,6.00
2019-02-08T07:56:20.179Z,3.30
2019-02-08T08:01:13.896Z,4.90
2019-02-08T08:06:08.105Z,3.70
2019-02-08T08:10:59.379Z,2.00
2019-02-08T08:15:49.578Z,1.60
2019-02-08T08:20:41.328Z,1.60
2019-02-08T08:25:34.335Z,4.20
2019-02-08T08:30:26.717Z,1.60
2019-02-08T08:35:20.470Z,4.00
2019-02-08T08:40:13.626Z,2.20
2019-02-08T08:45:05.189Z,5.50
2019-02-08T08:49:57.145Z,1.70
2019-02-08T08:54:49.089Z,4.20
2019-02-08T08:59:41.111Z,1.30
2019-02-08T09:04:34.773Z,3.80
2019-02-08T09:09:28.136Z,1.70
2019-02-08T09:14:21.473Z,1.60
2019-02-08T09:19:14.146Z,1.20
2019-02-08T09:24:05.812Z,1.10
2019-02-08T09:28:57.754Z,0.90
2019-02-08T09:33:49.981Z,0.70
2019-02-08T09:38:42.417Z,2.40
2019-02-08T09:43:34.589Z,1.80
2019-02-08T09:48:28.966Z,0.60
2019-02-08T09:53:22.499Z,3.30
2019-02-08T09:58:14.157Z,2.20
2019-02-08T09:58:52.164Z,2.60
2019-02-08T10:03:43.228Z,3.40
2019-02-08T10:08:37.642Z,3.00
2019-02-08T10:13:31.550Z,1.70
2019-02-08T10:18:23.616Z,5.10
2019-02-08T10:23:15.951Z,0.90
2019-02-08T10:28:08.025Z,0.60
2019-02-08T10:33:00.378Z,1.60
2019-02-08T10:37:54.137Z,4.00
2019-02-08T10:42:45.934Z,0.60
2019-02-08T10:47:39.974Z,0.30
2019-02-08T10:52:32.083Z,1.00
2019-02-08T10:57:26.389Z,1.00
2019-02-08T11:02:18.028Z,1.10
2019-02-08T11:07:10.014Z,1.10
2019-02-08T11:12:04.249Z,1.00
2019-02-08T11:16:56.347Z,0.40
2019-02-08T11:21:50.519Z,0.40
2019-02-08T11:26:42.407Z,1.30
2019-02-08T11:31:34.710Z,1.50
2019-02-08T11:36:27.737Z,0.10
2019-02-08T11:41:19.427Z,3.50
2019-02-08T11:46:11.578Z,0.30
2019-02-08T11:51:04.234Z,0.50
2019-02-08T11:55:58.353Z,0.50
2019-02-08T12:00:50.234Z,0.70
2019-02-08T12:05:42.282Z,0.40
2019-02-08T12:10:36.329Z,0.70
2019-02-08T12:15:29.999Z,0.70
2019-02-08T12:20:23.613Z,0.60
2019-02-08T12:25:17.212Z,0.70
2019-02-08T12:30:08.320Z,0.50
2019-02-08T12:35:00.430Z,0.70
2019-02-08T12:39:52.488Z,1.00
2019-02-08T12:44:47.003Z,0.20
2019-02-08T12:49:39.331Z,0.40
2019-02-08T12:54:31.377Z,0.60
2019-02-08T12:59:25.619Z,0.30
2019-02-08T13:04:17.322Z,2.50
2019-02-08T13:09:09.970Z,0.30
2019-02-08T13:14:04.168Z,0.50
2019-02-08T13:18:56.006Z,0.40
2019-02-08T13:23:50.116Z,0.40
2019-02-08T13:28:41.929Z,1.80
2019-02-08T13:33:33.974Z,1.00
2019-02-08T13:38:26.776Z,2.20
2019-02-08T13:43:19.392Z,1.10
2019-02-08T13:48:10.863Z,3.00
2019-02-08T13:53:04.820Z,2.00
2019-02-08T13:57:58.701Z,1.40
2019-02-08T14:02:50.387Z,2.10
2019-02-08T14:07:42.449Z,1.90
2019-02-08T14:12:36.751Z,1.50
2019-02-08T14:17:30.732Z,1.80
2019-02-08T14:22:22.197Z,0.70
2019-02-08T14:27:16.126Z,2.50
2019-02-08T14:32:08.155Z,1.30
2019-02-08T14:37:00.500Z,0.80
2019-02-08T14:41:53.088Z,0.80
2019-02-08T14:46:45.009Z,3.10
2019-02-08T14:51:37.958Z,1.50
2019-02-08T14:56:30.828Z,2.80
2019-02-08T15:01:22.917Z,1.00
2019-02-08T15:06:17.053Z,4.30
2019-02-08T15:11:08.680Z,1.60
2019-02-08T15:16:01.177Z,4.30
2019-02-08T15:20:55.575Z,2.50
2019-02-08T15:25:47.552Z,3.40
2019-02-08T15:30:39.782Z,1.80
2019-02-08T15:35:35.100Z,8.70
2019-02-08T15:40:28.845Z,4.80
2019-02-08T15:45:20.208Z,4.40
2019-02-08T15:50:14.269Z,6.60
2019-02-08T15:55:06.312Z,4.60
2019-02-08T15:59:58.254Z,8.20
2019-02-08T16:04:50.461Z,5.10
2019-02-08T16:09:42.316Z,3.80
2019-02-08T16:14:34.346Z,4.20
2019-02-08T16:19:26.703Z,0.70
2019-02-08T16:24:20.878Z,2.50
2019-02-08T16:29:12.973Z,2.40
2019-02-08T16:34:05.987Z,1.10
2019-02-08T16:38:58.340Z,3.60
2019-02-08T16:43:50.998Z,6.70
2019-02-08T16:48:42.899Z,1.70
2019-02-08T16:53:37.065Z,3.00
2019-02-08T16:58:29.485Z,4.30
2019-02-08T17:03:21.354Z,3.20
2019-02-08T17:08:14.018Z,2.60
2019-02-08T17:10:36.629Z,1.90
2019-02-08T17:10:57.808Z,3.10
2019-02-08T17:12:41.254Z,4.70
2019-02-08T17:13:09.737Z,4.80
2019-02-08T17:14:13.966Z,4.30
2019-02-08T17:15:50.518Z,1.70
2019-02-08T17:16:08.708Z,4.30
2019-02-08T17:16:21.343Z,2.70
2019-02-08T17:52:10.881Z,2.40
2019-02-08T17:57:03.035Z,4.80
2019-02-08T18:02:39.475Z,4.10
2019-02-08T18:03:52.430Z,3.50
2019-02-08T18:06:01.623Z,5.30
2019-02-08T18:06:28.269Z,1.80
2019-02-08T18:07:48.017Z,3.10
2019-02-08T18:12:40.983Z,6.10
2019-02-08T18:17:34.392Z,1.60
2019-02-08T18:22:28.129Z,3.60
2019-02-08T18:27:20.322Z,2.30
2019-02-08T18:32:14.385Z,2.80
2019-02-08T18:37:08.225Z,2.20
2019-02-08T18:42:01.882Z,4.10
2019-02-08T18:46:53.749Z,0.70
2019-02-08T18:51:48.235Z,2.00
2019-02-08T18:56:42.070Z,3.90
2019-02-08T19:01:36.354Z,2.10
2019-02-08T19:06:30.355Z,3.10
2019-02-08T19:11:24.146Z,4.20
2019-02-08T19:16:17.991Z,1.20
2019-02-08T19:21:11.867Z,3.80
2019-02-08T19:26:05.635Z,1.50
2019-02-08T19:30:59.157Z,2.70
2019-02-08T19:35:52.833Z,4.60
2019-02-08T19:40:46.310Z,2.40
2019-02-08T19:45:38.491Z,4.30
2019-02-08T19:50:32.487Z,4.50
2019-02-08T19:55:27.374Z,12.30
2019-02-08T20:00:20.829Z,9.80
2019-02-08T20:05:15.473Z,12.70
2019-02-08T20:10:06.750Z,10.40
2019-02-08T20:15:00.806Z,6.40
2019-02-08T20:19:54.593Z,8.50
2019-02-08T20:24:46.400Z,10.00
2019-02-08T20:29:40.546Z,9.10
2019-02-08T20:34:34.225Z,13.90
2019-02-08T20:39:27.873Z,12.70
2019-02-08T20:44:21.649Z,9.00
2019-02-08T20:49:15.388Z,7.00
2019-02-08T20:54:08.995Z,5.20
2019-02-08T20:59:01.217Z,5.60
2019-02-08T21:03:55.205Z,8.40
2019-02-08T21:08:48.718Z,9.40
2019-02-08T21:13:40.750Z,8.90
2019-02-08T21:18:34.508Z,3.80
2019-02-08T21:23:28.178Z,6.00
2019-02-08T21:28:22.879Z,4.60
2019-02-08T21:33:16.424Z,4.70
2019-02-08T21:38:08.048Z,4.20
2019-02-08T21:43:00.278Z,5.00
2019-02-08T21:47:54.078Z,1.90
2019-02-08T21:52:47.527Z,2.60
2019-02-08T21:57:41.967Z,2.60
2019-02-08T22:02:35.112Z,4.00
2019-02-08T22:07:37.324Z,2.40
2019-02-08T22:12:29.268Z,5.00
2019-02-08T22:17:22.926Z,1.20
2019-02-08T22:22:13.203Z,1.60
2019-02-08T22:27:08.376Z,1.60
2019-02-08T22:32:01.792Z,2.10
2019-02-08T22:36:55.591Z,4.00
2019-02-08T22:41:46.926Z,4.10
2019-02-08T22:46:40.121Z,4.80
2019-02-08T22:51:33.530Z,1.90
2019-02-08T22:56:27.322Z,3.40
2019-02-08T23:01:21.929Z,3.80
2019-02-08T23:06:15.326Z,1.80
2019-02-08T23:11:07.436Z,1.30
2019-02-08T23:15:58.737Z,3.80
2019-02-08T23:20:50.653Z,6.00
2019-02-08T23:25:42.635Z,2.70
2019-02-08T23:30:36.590Z,5.60
2019-02-08T23:35:28.059Z,6.00
2019-02-08T23:40:20.789Z,6.60
2019-02-08T23:45:12.770Z,7.80
2019-02-08T23:50:04.692Z,9.70
2019-02-08T23:54:56.751Z,8.10
2019-02-08T23:59:50.657Z,3.30
